Windsor, Wisconsin
Current Conditions -  °F | °C
As of 12:23 AM on Saturday 25 Oct 2014 (Local Time) from KMSN Reporting Station
Scattered Clouds Scattered Clouds  
Wind Chill: 55°   Ceiling: Unl
Heat Index: 55°   Visibility: 8mi
Dew Point: 51°   Wind: 0mph
Humidity: 86%   Direction: NA
Pressure: 29.89"   Gusts: NA
Location:  43.22°N, 89.34°W
Report Text: KMSN 250523Z AUTO 00000KT 8SM SCT010 13/11 A2989 RMK AO2 T01280106
Loading
Personal Weather Stations






























Interactive Weather Map
Tropical Storm Tracking
New forecast layout! Learn more

10-Day Weather Forecast

Advertisements
Track Severe Weather on mobile